KOWD/OWD METAR and TAF weather

Enter ICAO airport designator
Station Type Date Time Source
KOWD METAR 2020/07/10 18:23 UTC NOAA

KOWD 101823Z 15008KT 10SM BKN027 BKN032 BKN060 29/22 A2998 RMK AO2 RAE06 P0000 T02890222


Station Type Date Time Source
KOWD Decoded METAR 2020/07/10 18:23 UTC NOAA

NORWOOD MEMORIAL AIRPORT, MA, United States (KOWD) 42-11N 71-10W 19M
Jul 10, 2020 - 02:23 PM EDT / 2020.07.10 1823 UTC
Wind: from the SSE (150 degrees) at 9 MPH (8 KT):0
Visibility: 10 mile(s):0
Sky conditions: mostly cloudy
Precipitation last hour: A trace
Temperature: 84.0 F (28.9 C)
Dew Point: 72.0 F (22.2 C)
Relative Humidity: 67%
Pressure (altimeter): 29.98 in. Hg (1015 hPa)
ob: KOWD 101823Z 15008KT 10SM BKN027 BKN032 BKN060 29/22 A2998 RMK AO2 RAE06 P0000 T02890222
cycle: 18

Station Type Date Time Source
KOWD TAF UTC NOAA

Error!

Example: see airport list